Time;durP1;ratioP1;P1;durP2;ratioP2;P2;SDS_P1;SDS_P2;PMS_P1;PMS_P2;Temp;Humidity;BMP_temperature;BMP_pressure;BME280_temperature;BME280_humidity;BME280_pressure;Samples;Min_cycle;Max_cycle;Signal;HPM_P1;HPM_P2
2024/03/31 00:00:52;;;;;;;24.08;20.00;;;11.80;81.90;;;;;;10302597;28;20232;-66
2024/03/31 00:05:56;;;;;;;23.77;21.15;;;11.70;82.20;;;;;;10304644;28;21400;-66
2024/03/31 00:11:01;;;;;;;23.48;20.77;;;11.60;82.00;;;;;;10308058;28;20855;-68
2024/03/31 00:16:04;;;;;;;23.48;20.98;;;11.60;82.10;;;;;;10299815;28;20209;-66
2024/03/31 00:21:07;;;;;;;23.30;20.80;;;11.50;82.20;;;;;;10302656;28;20220;-66
2024/03/31 00:26:11;;;;;;;21.90;19.45;;;11.40;82.50;;;;;;10300605;28;20212;-68
2024/03/31 00:31:13;;;;;;;22.48;20.08;;;11.40;82.30;;;;;;10314959;28;20637;-65
2024/03/31 00:36:16;;;;;;;21.52;18.95;;;11.40;82.00;;;;;;10323116;28;20283;-65
2024/03/31 00:41:20;;;;;;;22.58;20.15;;;11.30;82.80;;;;;;10301421;28;20317;-66
2024/03/31 00:46:22;;;;;;;24.35;21.38;;;11.30;82.60;;;;;;10299184;28;20580;-67
2024/03/31 00:51:25;;;;;;;24.70;21.65;;;11.30;82.70;;;;;;10297092;28;21325;-64
2024/03/31 00:56:29;;;;;;;23.33;20.55;;;11.20;82.70;;;;;;10303577;28;20258;-66
2024/03/31 01:01:32;;;;;;;25.33;21.45;;;11.20;82.60;;;;;;10299884;28;20295;-67
2024/03/31 01:06:34;;;;;;;23.85;21.05;;;11.20;83.00;;;;;;10307700;28;20216;-66
2024/03/31 01:11:39;;;;;;;24.15;21.55;;;11.10;83.20;;;;;;10308483;28;20224;-65
2024/03/31 01:16:41;;;;;;;28.63;24.30;;;11.10;83.00;;;;;;10322184;28;20278;-67
2024/03/31 01:21:44;;;;;;;28.38;23.85;;;11.10;83.00;;;;;;10321567;28;20229;-66
2024/03/31 01:26:48;;;;;;;28.27;23.05;;;11.10;83.10;;;;;;10312371;28;20913;-65
2024/03/31 01:31:51;;;;;;;26.35;22.90;;;11.10;83.00;;;;;;10307031;28;20251;-66
2024/03/31 01:36:53;;;;;;;25.17;22.38;;;11.00;83.60;;;;;;10299152;28;20212;-68
2024/03/31 01:41:57;;;;;;;25.15;22.35;;;11.00;82.90;;;;;;10304812;28;20229;-65
2024/03/31 01:47:00;;;;;;;24.77;22.17;;;11.00;83.00;;;;;;10303260;28;20409;-65
2024/03/31 01:52:03;;;;;;;26.48;22.80;;;10.90;83.70;;;;;;10297389;28;20268;-67
2024/03/31 01:57:07;;;;;;;27.02;21.13;;;10.90;83.70;;;;;;10294194;28;20692;-66
2024/03/31 02:02:10;;;;;;;24.17;21.40;;;10.90;83.60;;;;;;10302994;28;21364;-64
2024/03/31 02:07:12;;;;;;;27.55;22.27;;;10.90;84.00;;;;;;10311037;28;20208;-66
2024/03/31 02:12:16;;;;;;;24.55;21.48;;;10.90;83.70;;;;;;10303799;28;20220;-66
2024/03/31 02:17:19;;;;;;;27.85;23.08;;;10.80;83.90;;;;;;10299836;28;20271;-64
2024/03/31 02:22:22;;;;;;;25.73;22.98;;;10.80;83.80;;;;;;10334080;28;20236;-65
2024/03/31 02:27:26;;;;;;;26.05;22.25;;;10.80;83.70;;;;;;10301957;28;20216;-67
2024/03/31 02:32:28;;;;;;;24.45;21.45;;;10.80;83.90;;;;;;10330407;28;20297;-66
2024/03/31 02:37:31;;;;;;;26.25;22.45;;;10.80;84.60;;;;;;10327076;28;21350;-65
2024/03/31 02:42:35;;;;;;;26.30;22.50;;;10.80;84.10;;;;;;10328763;28;20240;-66
2024/03/31 02:47:37;;;;;;;27.25;22.58;;;10.80;84.40;;;;;;10329340;28;20568;-65
2024/03/31 02:52:40;;;;;;;28.10;23.05;;;10.90;84.40;;;;;;10315463;23;21415;-59
2024/03/31 02:57:48;;;;;;;26.27;23.15;;;10.90;84.10;;;;;;10288852;28;20278;-59
2024/03/31 03:02:50;;;;;;;27.73;23.10;;;10.80;84.60;;;;;;10292068;28;20236;-58
2024/03/31 03:07:53;;;;;;;27.17;23.40;;;10.90;84.60;;;;;;10291213;28;20220;-59
2024/03/31 03:12:59;;;;;;;27.63;23.98;;;10.90;84.40;;;;;;10291648;28;20302;-60
2024/03/31 03:18:01;;;;;;;25.75;22.92;;;10.90;84.20;;;;;;10289114;28;20212;-60
2024/03/31 03:23:04;;;;;;;27.23;23.30;;;10.90;84.90;;;;;;10291969;28;20236;-58
2024/03/31 03:28:08;;;;;;;25.60;22.65;;;10.90;85.00;;;;;;10289893;28;20224;-59
2024/03/31 03:33:10;;;;;;;25.45;22.75;;;10.90;84.70;;;;;;10290883;28;20785;-60
2024/03/31 03:38:13;;;;;;;26.25;22.35;;;10.90;84.80;;;;;;10291206;28;20342;-60
2024/03/31 03:43:17;;;;;;;27.38;22.33;;;10.90;84.60;;;;;;10291637;28;20317;-61
2024/03/31 03:48:20;;;;;;;25.40;22.63;;;10.90;84.70;;;;;;10291562;28;20208;-60
2024/03/31 03:53:22;;;;;;;25.00;22.27;;;10.90;84.70;;;;;;10292037;28;20263;-60
2024/03/31 03:58:26;;;;;;;28.42;23.77;;;10.90;85.10;;;;;;10290019;28;21714;-61
2024/03/31 04:03:29;;;;;;;27.77;24.77;;;11.00;85.30;;;;;;10290478;28;20286;-61
2024/03/31 04:08:31;;;;;;;28.10;24.63;;;11.00;85.70;;;;;;10291639;28;20205;-60
2024/03/31 04:13:35;;;;;;;29.05;25.27;;;11.00;85.20;;;;;;10288863;28;20763;-61
2024/03/31 04:18:38;;;;;;;31.17;25.73;;;11.10;85.90;;;;;;10290039;28;20235;-60
2024/03/31 04:23:41;;;;;;;32.00;26.27;;;11.20;85.70;;;;;;10289467;28;20232;-61
2024/03/31 04:28:45;;;;;;;28.92;25.77;;;11.10;85.90;;;;;;10291061;28;20275;-61
2024/03/31 04:33:47;;;;;;;28.83;25.77;;;11.20;86.60;;;;;;10296332;28;21253;-60
2024/03/31 04:38:50;;;;;;;29.08;25.98;;;11.20;86.60;;;;;;10297483;28;20212;-61
2024/03/31 04:43:54;;;;;;;28.80;25.90;;;11.20;86.80;;;;;;10294578;28;20236;-59
2024/03/31 04:48:56;;;;;;;29.23;26.15;;;11.20;87.20;;;;;;10296090;28;20270;-61
2024/03/31 04:53:59;;;;;;;29.45;25.23;;;11.20;86.90;;;;;;10295398;28;20228;-60
2024/03/31 04:59:03;;;;;;;29.23;24.27;;;11.20;87.40;;;;;;10294879;28;20209;-60
2024/03/31 05:04:06;;;;;;;26.27;23.02;;;11.30;88.40;;;;;;10294779;28;20259;-59
2024/03/31 05:09:08;;;;;;;25.67;22.77;;;11.20;89.20;;;;;;10299341;28;20212;-60
2024/03/31 05:14:12;;;;;;;27.70;23.48;;;11.30;88.40;;;;;;10295111;28;20225;-61
2024/03/31 05:19:15;;;;;;;27.73;23.17;;;11.30;89.20;;;;;;10293669;28;21395;-62
2024/03/31 05:24:18;;;;;;;26.85;23.10;;;11.30;88.80;;;;;;10294268;28;20240;-61
2024/03/31 05:29:23;;;;;;;25.73;22.08;;;11.30;88.80;;;;;;10292688;28;20213;-60
2024/03/31 05:34:25;;;;;;;23.60;19.98;;;11.20;88.90;;;;;;10296795;28;20200;-61
2024/03/31 05:39:28;;;;;;;21.60;19.40;;;11.30;89.40;;;;;;10294608;28;20205;-61
2024/03/31 05:44:32;;;;;;;21.45;17.83;;;11.30;89.30;;;;;;10302730;28;20232;-61
2024/03/31 05:49:35;;;;;;;19.98;16.92;;;11.30;89.80;;;;;;10301001;28;20247;-62
2024/03/31 05:54:37;;;;;;;19.88;15.48;;;11.30;90.00;;;;;;10300007;28;20205;-60
2024/03/31 05:59:41;;;;;;;21.10;16.25;;;11.30;90.00;;;;;;10300780;28;20262;-61
2024/03/31 06:04:44;;;;;;;18.88;14.23;;;11.30;90.10;;;;;;10300787;28;21356;-61
2024/03/31 06:09:47;;;;;;;19.48;15.52;;;11.40;90.30;;;;;;10298580;28;20275;-60
2024/03/31 06:14:51;;;;;;;19.85;13.65;;;11.40;90.20;;;;;;10300984;28;20208;-61
2024/03/31 06:19:53;;;;;;;20.35;13.43;;;11.50;90.50;;;;;;10300614;28;20252;-60
2024/03/31 06:24:56;;;;;;;18.75;14.65;;;11.50;90.30;;;;;;10300236;28;20236;-61
2024/03/31 06:30:00;;;;;;;20.23;14.27;;;11.60;90.30;;;;;;10299468;28;20232;-59
2024/03/31 06:35:03;;;;;;;17.08;13.27;;;11.60;90.50;;;;;;10299624;28;20225;-61
2024/03/31 06:40:06;;;;;;;20.00;13.25;;;11.70;90.80;;;;;;10298195;28;20290;-59
2024/03/31 06:45:10;;;;;;;18.33;12.57;;;11.70;90.80;;;;;;10297828;28;20224;-61
2024/03/31 06:50:13;;;;;;;15.20;10.05;;;11.80;90.70;;;;;;10296854;28;20326;-64
2024/03/31 06:55:16;;;;;;;17.73;10.70;;;11.90;90.60;;;;;;10298319;28;20204;-62
2024/03/31 07:00:20;;;;;;;16.58;10.10;;;12.00;90.40;;;;;;10299234;28;20249;-58
2024/03/31 07:05:22;;;;;;;12.73;7.70;;;12.10;90.60;;;;;;10298217;28;20232;-61
2024/03/31 07:10:27;;;;;;;15.70;8.48;;;12.20;90.90;;;;;;10296138;28;20302;-61
2024/03/31 07:15:31;;;;;;;14.32;8.07;;;12.30;90.90;;;;;;10297701;28;20303;-63
2024/03/31 07:20:34;;;;;;;11.82;6.60;;;12.40;90.70;;;;;;10300072;28;20722;-63
2024/03/31 07:25:37;;;;;;;12.45;6.90;;;12.40;91.30;;;;;;10297908;28;20240;-60
2024/03/31 07:30:41;;;;;;;11.93;6.35;;;12.50;91.10;;;;;;10295379;28;20286;-63
2024/03/31 07:35:44;;;;;;;11.68;6.10;;;12.60;90.90;;;;;;10295724;28;20263;-62
2024/03/31 07:40:46;;;;;;;10.85;5.35;;;12.80;90.80;;;;;;10301205;28;20221;-62
2024/03/31 07:45:51;;;;;;;9.02;4.55;;;12.80;90.80;;;;;;10299181;28;20228;-62
2024/03/31 07:50:53;;;;;;;13.88;5.15;;;12.90;90.90;;;;;;10298388;28;20306;-61
2024/03/31 07:55:59;;;;;;;8.75;3.72;;;13.00;91.20;;;;;;10297935;28;20307;-63
2024/03/31 08:01:03;;;;;;;10.00;4.03;;;13.10;91.10;;;;;;10295615;28;20324;-63
2024/03/31 08:06:06;;;;;;;9.95;3.50;;;13.20;91.10;;;;;;10301933;28;21675;-62
2024/03/31 08:11:09;;;;;;;11.18;3.20;;;13.30;91.00;;;;;;10257569;28;20306;-63
2024/03/31 08:16:13;;;;;;;9.80;3.80;;;13.40;90.90;;;;;;10236197;28;20229;-62
2024/03/31 08:21:15;;;;;;;6.90;2.92;;;13.50;91.10;;;;;;10244862;28;20261;-60
2024/03/31 08:26:18;;;;;;;8.95;3.00;;;13.50;91.40;;;;;;10245954;28;20303;-64
2024/03/31 08:31:22;;;;;;;8.05;2.85;;;13.60;91.00;;;;;;10243383;28;20226;-61
2024/03/31 08:36:24;;;;;;;11.57;2.80;;;13.80;90.90;;;;;;10246545;28;20206;-61
2024/03/31 08:41:45;;;;;;;6.03;2.60;;;13.90;90.90;;;;;;10248684;28;20263;-63
2024/03/31 08:46:49;;;;;;;9.20;2.67;;;14.10;91.00;;;;;;10243857;28;20813;-63
2024/03/31 08:51:53;;;;;;;9.10;2.33;;;14.30;90.80;;;;;;10312570;23;20228;-61
2024/03/31 08:56:55;;;;;;;7.22;3.17;;;14.40;90.80;;;;;;10386560;28;20840;-61
2024/03/31 09:02:01;;;;;;;8.65;2.92;;;14.50;90.70;;;;;;10383733;28;20777;-61
2024/03/31 09:07:04;;;;;;;6.10;2.42;;;14.60;90.70;;;;;;10392783;28;20321;-62
2024/03/31 09:12:08;;;;;;;8.43;2.05;;;14.70;90.70;;;;;;10395369;28;20849;-63
2024/03/31 09:17:13;;;;;;;9.98;2.70;;;14.80;90.70;;;;;;10400903;28;20743;-62
2024/03/31 09:22:15;;;;;;;7.68;2.33;;;14.90;90.40;;;;;;10395035;28;20227;-63
2024/03/31 09:27:18;;;;;;;7.88;2.20;;;15.00;90.40;;;;;;10388040;28;20781;-62
2024/03/31 09:32:22;;;;;;;9.30;2.80;;;15.20;90.20;;;;;;10381199;28;20236;-62
2024/03/31 09:37:25;;;;;;;7.15;3.22;;;15.30;90.10;;;;;;10371276;28;20248;-63
2024/03/31 09:42:28;;;;;;;9.10;2.97;;;15.40;89.50;;;;;;10386488;28;20231;-61
2024/03/31 09:47:37;;;;;;;9.02;2.50;;;15.60;90.10;;;;;;10375242;28;20299;-60
2024/03/31 09:52:43;;;;;;;11.65;2.47;;;15.80;90.00;;;;;;10386558;28;21419;-61
2024/03/31 09:57:50;;;;;;;8.07;2.08;;;16.00;89.40;;;;;;10389523;28;20706;-62
2024/03/31 10:02:58;;;;;;;5.57;1.80;;;16.10;89.30;;;;;;10380438;28;20948;-61
2024/03/31 10:08:02;;;;;;;6.93;2.70;;;16.20;89.10;;;;;;10373730;28;20485;-61
2024/03/31 10:13:06;;;;;;;7.03;2.10;;;16.20;88.40;;;;;;10372689;28;20284;-61
2024/03/31 10:18:12;;;;;;;8.60;2.75;;;16.30;88.40;;;;;;10376184;28;20260;-60
2024/03/31 10:23:15;;;;;;;7.63;2.30;;;16.50;88.20;;;;;;10377085;28;20236;-61
2024/03/31 10:28:19;;;;;;;4.55;1.77;;;16.60;88.10;;;;;;10377195;28;20708;-59
2024/03/31 10:33:23;;;;;;;9.05;1.73;;;16.70;87.50;;;;;;10374240;28;20245;-60
2024/03/31 10:38:25;;;;;;;6.90;1.88;;;16.80;87.20;;;;;;10376494;28;20199;-61
2024/03/31 10:43:29;;;;;;;7.20;1.90;;;16.90;87.70;;;;;;10390163;28;20223;-60
2024/03/31 10:48:34;;;;;;;7.53;1.85;;;17.00;86.20;;;;;;10390095;28;20293;-61
2024/03/31 10:53:36;;;;;;;7.20;1.55;;;17.10;86.10;;;;;;10383882;28;20265;-61
2024/03/31 10:58:40;;;;;;;7.28;1.48;;;17.20;86.00;;;;;;10373751;28;20211;-61
2024/03/31 11:03:45;;;;;;;6.68;1.80;;;17.40;85.70;;;;;;10374302;28;21214;-60
2024/03/31 11:08:48;;;;;;;7.60;2.22;;;17.50;85.30;;;;;;10371855;28;20223;-61
2024/03/31 11:13:53;;;;;;;6.38;1.45;;;17.70;84.80;;;;;;10370606;28;21886;-61
2024/03/31 11:18:57;;;;;;;6.78;1.83;;;17.90;84.40;;;;;;10372643;28;20215;-61
2024/03/31 11:24:02;;;;;;;9.50;1.77;;;18.10;84.40;;;;;;10383966;28;20279;-61
2024/03/31 11:29:06;;;;;;;8.35;1.80;;;18.30;83.70;;;;;;10385268;28;20211;-60
2024/03/31 11:34:10;;;;;;;6.72;1.48;;;18.50;82.20;;;;;;10382017;28;20484;-62
2024/03/31 11:39:13;;;;;;;9.57;2.22;;;18.70;82.50;;;;;;10375384;28;20756;-61
2024/03/31 11:44:16;;;;;;;7.70;1.60;;;18.80;81.40;;;;;;10377365;28;20640;-61
2024/03/31 11:49:20;;;;;;;7.28;1.60;;;19.10;81.60;;;;;;10377011;28;20208;-61
2024/03/31 11:54:23;;;;;;;5.30;1.63;;;19.40;81.40;;;;;;10381029;28;20310;-63
2024/03/31 11:59:25;;;;;;;7.25;1.70;;;19.50;80.60;;;;;;10383085;28;20204;-61
2024/03/31 12:04:30;;;;;;;5.75;1.35;;;19.40;81.10;;;;;;10374840;28;20243;-63
2024/03/31 12:09:34;;;;;;;5.70;1.63;;;19.20;80.50;;;;;;10377435;28;21348;-61
2024/03/31 12:14:37;;;;;;;7.65;1.77;;;19.30;80.60;;;;;;10386191;28;20861;-61
2024/03/31 12:19:41;;;;;;;7.80;1.50;;;19.40;80.60;;;;;;10382442;28;20284;-61
2024/03/31 12:24:45;;;;;;;6.20;1.92;;;19.20;79.90;;;;;;10387985;28;20231;-59
2024/03/31 12:29:47;;;;;;;5.07;1.30;;;19.10;79.00;;;;;;10385883;28;20238;-60
2024/03/31 12:34:52;;;;;;;8.45;2.13;;;19.10;80.90;;;;;;10383096;28;20212;-68
2024/03/31 12:39:54;;;;;;;8.02;2.15;;;19.50;79.10;;;;;;10384669;28;20226;-60
2024/03/31 12:44:57;;;;;;;10.52;2.10;;;19.70;79.10;;;;;;10385442;28;20324;-59
2024/03/31 12:50:02;;;;;;;8.30;1.80;;;19.60;79.70;;;;;;10380141;28;20289;-60
2024/03/31 12:55:10;;;;;;;8.32;1.85;;;19.60;77.90;;;;;;10380060;28;20288;-60
2024/03/31 13:00:13;;;;;;;7.00;1.58;;;19.80;78.60;;;;;;10378599;28;20231;-59
2024/03/31 13:05:19;;;;;;;6.45;2.00;;;20.00;78.50;;;;;;10372280;28;20246;-59
2024/03/31 13:10:21;;;;;;;5.80;1.40;;;20.20;77.50;;;;;;10374933;28;20507;-61
2024/03/31 13:15:24;;;;;;;5.95;1.30;;;20.10;76.80;;;;;;10380781;28;20250;-60
2024/03/31 13:20:30;;;;;;;7.35;1.70;;;20.00;77.20;;;;;;10376572;28;20697;-60
2024/03/31 13:25:33;;;;;;;7.40;1.85;;;20.20;76.90;;;;;;10404193;28;20281;-60
2024/03/31 13:30:36;;;;;;;5.95;1.95;;;20.60;76.50;;;;;;10382424;28;20231;-60
2024/03/31 13:35:40;;;;;;;5.35;1.67;;;20.70;75.70;;;;;;10383513;28;20211;-61
2024/03/31 13:40:43;;;;;;;8.45;1.73;;;20.50;74.70;;;;;;10381307;28;20231;-60
2024/03/31 13:45:45;;;;;;;7.45;1.73;;;20.40;75.40;;;;;;10382870;28;20357;-61
2024/03/31 13:50:49;;;;;;;7.53;2.08;;;20.60;75.00;;;;;;10386121;28;20239;-62
2024/03/31 13:55:52;;;;;;;9.40;2.00;;;20.60;73.50;;;;;;10388419;28;21375;-61
2024/03/31 14:00:55;;;;;;;8.65;1.95;;;20.50;73.60;;;;;;10370221;28;20293;-60
2024/03/31 14:05:58;;;;;;;5.50;1.77;;;20.40;74.00;;;;;;10370436;28;20779;-63
2024/03/31 14:11:01;;;;;;;6.95;1.85;;;20.30;73.30;;;;;;10373995;28;20309;-61
2024/03/31 14:16:05;;;;;;;8.65;1.80;;;20.30;74.60;;;;;;10377551;28;20849;-61
2024/03/31 14:21:09;;;;;;;8.70;1.75;;;20.20;72.80;;;;;;10373554;28;20219;-62
2024/03/31 14:26:12;;;;;;;8.82;1.88;;;20.60;74.00;;;;;;10365198;28;20254;-61
2024/03/31 14:31:15;;;;;;;6.93;1.90;;;21.40;74.20;;;;;;10366960;28;20223;-61
2024/03/31 14:36:19;;;;;;;8.43;1.50;;;22.20;72.60;;;;;;10370477;28;20853;-59
2024/03/31 14:41:21;;;;;;;7.10;1.58;;;22.60;71.00;;;;;;10363411;28;20223;-60
2024/03/31 14:46:24;;;;;;;5.22;2.00;;;22.60;70.10;;;;;;10371831;28;20808;-61
2024/03/31 14:51:28;;;;;;;7.00;1.70;;;22.70;69.20;;;;;;10397202;22;20255;-65
2024/03/31 14:56:30;;;;;;;7.07;1.60;;;22.50;68.80;;;;;;10382748;28;20196;-66
2024/03/31 15:01:33;;;;;;;9.98;3.67;;;22.20;69.00;;;;;;10392936;28;20232;-65
2024/03/31 15:06:37;;;;;;;9.82;5.88;;;21.80;68.50;;;;;;10392148;28;20224;-66
2024/03/31 15:11:39;;;;;;;5.25;1.58;;;21.50;68.60;;;;;;10385687;28;20221;-66
2024/03/31 15:16:42;;;;;;;7.38;1.67;;;21.10;68.70;;;;;;10384949;28;20197;-68
2024/03/31 15:21:46;;;;;;;9.60;1.65;;;20.80;68.60;;;;;;10382653;28;20640;-67
2024/03/31 15:26:49;;;;;;;7.57;2.15;;;20.50;68.70;;;;;;10385555;28;20278;-66
2024/03/31 15:31:51;;;;;;;6.55;1.77;;;20.30;69.20;;;;;;10317637;28;20285;-68
2024/03/31 15:36:56;;;;;;;11.02;1.65;;;20.00;68.60;;;;;;10301425;28;20287;-65
2024/03/31 15:41:58;;;;;;;6.57;2.00;;;19.80;68.70;;;;;;10290748;28;20232;-65
2024/03/31 15:47:04;;;;;;;7.18;1.70;;;19.80;69.50;;;;;;10290278;28;20237;-66
2024/03/31 15:52:08;;;;;;;7.57;2.00;;;19.80;69.60;;;;;;10294509;28;20682;-69
2024/03/31 15:57:11;;;;;;;7.15;2.15;;;19.70;70.10;;;;;;10318999;28;21809;-66
2024/03/31 16:02:15;;;;;;;5.50;1.67;;;19.60;70.20;;;;;;10376605;28;20267;-66
2024/03/31 16:07:19;;;;;;;6.60;2.03;;;19.40;70.10;;;;;;10379088;28;20279;-68
2024/03/31 16:12:21;;;;;;;7.38;1.85;;;19.30;70.40;;;;;;10377219;28;20220;-67
2024/03/31 16:17:24;;;;;;;10.85;1.92;;;19.20;70.70;;;;;;10378767;28;20201;-65
2024/03/31 16:22:28;;;;;;;8.63;2.63;;;19.00;70.90;;;;;;10383813;28;20302;-66
2024/03/31 16:27:31;;;;;;;8.27;2.58;;;18.90;71.10;;;;;;10382728;28;21305;-65
2024/03/31 16:32:33;;;;;;;8.80;2.92;;;18.80;71.50;;;;;;10385749;28;20232;-66
2024/03/31 16:37:37;;;;;;;9.13;3.30;;;18.70;71.90;;;;;;10393512;28;20236;-65
2024/03/31 16:42:40;;;;;;;9.52;2.67;;;18.60;72.50;;;;;;10382453;28;20225;-67
2024/03/31 16:47:42;;;;;;;11.07;3.05;;;18.50;72.50;;;;;;10398757;28;20235;-68
2024/03/31 16:52:46;;;;;;;12.45;3.85;;;18.40;72.80;;;;;;10382085;28;20241;-67
2024/03/31 16:57:49;;;;;;;8.57;4.07;;;18.30;72.90;;;;;;10380518;28;20228;-66
2024/03/31 17:02:51;;;;;;;14.48;4.07;;;18.20;73.10;;;;;;10376473;28;20309;-66
2024/03/31 17:07:55;;;;;;;14.32;3.88;;;18.10;73.20;;;;;;10383259;28;20306;-67
2024/03/31 17:12:58;;;;;;;11.35;2.80;;;18.00;73.30;;;;;;10386851;28;20225;-67
2024/03/31 17:18:03;;;;;;;33.85;6.57;;;17.90;73.60;;;;;;10382877;28;20224;-64
2024/03/31 17:23:07;;;;;;;15.10;3.95;;;17.90;73.60;;;;;;10376303;28;20255;-65
2024/03/31 17:28:10;;;;;;;9.23;2.67;;;17.80;73.80;;;;;;10387702;28;20227;-65
2024/03/31 17:33:13;;;;;;;16.13;3.22;;;17.80;73.60;;;;;;10407798;28;20918;-63
2024/03/31 17:38:17;;;;;;;9.85;3.10;;;17.50;75.60;;;;;;10382401;28;20193;-65
2024/03/31 17:43:19;;;;;;;8.82;2.22;;;17.10;77.70;;;;;;10389632;28;20247;-70
2024/03/31 17:48:22;;;;;;;11.70;2.90;;;16.70;78.50;;;;;;10414044;28;20289;-67
2024/03/31 17:53:26;;;;;;;9.38;2.88;;;16.60;80.00;;;;;;10377213;28;20267;-66
2024/03/31 17:58:29;;;;;;;5.50;1.50;;;16.30;80.40;;;;;;10401044;28;20193;-65
2024/03/31 18:03:32;;;;;;;4.50;1.75;;;16.20;80.80;;;;;;10382812;28;20214;-65
2024/03/31 18:08:36;;;;;;;4.07;1.40;;;15.90;80.50;;;;;;10395981;28;20243;-66
2024/03/31 18:13:39;;;;;;;3.45;1.40;;;15.80;80.70;;;;;;10386342;28;20256;-67
2024/03/31 18:18:42;;;;;;;2.88;1.15;;;15.60;81.20;;;;;;10405576;28;20197;-66
2024/03/31 18:23:47;;;;;;;2.53;1.20;;;15.50;80.80;;;;;;10413634;28;20714;-66
2024/03/31 18:28:50;;;;;;;2.80;1.00;;;15.30;81.50;;;;;;10404350;28;20220;-66
2024/03/31 18:33:53;;;;;;;1.40;1.08;;;15.20;81.30;;;;;;10375142;28;20294;-67
2024/03/31 18:38:57;;;;;;;3.10;1.48;;;15.20;81.50;;;;;;10340300;28;20267;-69
2024/03/31 18:44:00;;;;;;;8.82;3.33;;;15.10;81.80;;;;;;10344474;28;20364;-69
2024/03/31 18:49:04;;;;;;;4.15;2.22;;;14.90;81.90;;;;;;10349230;28;20795;-68
2024/03/31 18:54:08;;;;;;;4.63;1.80;;;14.80;81.60;;;;;;10369474;28;20354;-67
2024/03/31 18:59:11;;;;;;;3.60;1.60;;;14.70;81.50;;;;;;10380824;28;20204;-66
2024/03/31 19:04:13;;;;;;;4.38;2.00;;;14.70;82.50;;;;;;10344675;28;20371;-71
2024/03/31 19:09:17;;;;;;;3.15;1.75;;;14.60;83.00;;;;;;10347509;28;20251;-67
2024/03/31 19:14:20;;;;;;;4.22;1.40;;;14.50;83.00;;;;;;10389559;28;20769;-70
2024/03/31 19:19:22;;;;;;;6.88;2.42;;;14.50;84.00;;;;;;10365798;28;20220;-68
2024/03/31 19:24:26;;;;;;;13.38;6.13;;;14.40;82.50;;;;;;10337674;28;20232;-69
2024/03/31 19:29:29;;;;;;;4.25;1.75;;;14.40;83.30;;;;;;10375389;28;20229;-65
2024/03/31 19:34:33;;;;;;;5.35;2.13;;;14.30;83.00;;;;;;10379626;28;20257;-71
2024/03/31 19:39:38;;;;;;;5.95;5.05;;;14.20;83.90;;;;;;10353504;28;20295;-66
2024/03/31 19:44:42;;;;;;;6.10;2.67;;;14.20;84.20;;;;;;10359271;28;20319;-67
2024/03/31 19:49:45;;;;;;;4.50;2.40;;;14.10;84.40;;;;;;10371029;28;20309;-66
2024/03/31 19:54:51;;;;;;;4.40;3.00;;;14.10;85.20;;;;;;10380676;28;20224;-61
2024/03/31 19:59:53;;;;;;;4.45;3.17;;;14.00;84.20;;;;;;10370633;28;20205;-65
2024/03/31 20:04:56;;;;;;;5.05;2.53;;;14.00;83.90;;;;;;10378774;28;20302;-64
2024/03/31 20:10:00;;;;;;;3.58;2.25;;;13.90;84.10;;;;;;10385629;28;20229;-63
2024/03/31 20:15:02;;;;;;;4.97;2.72;;;13.90;84.30;;;;;;10385936;28;20224;-60
2024/03/31 20:20:06;;;;;;;7.32;4.20;;;13.80;84.30;;;;;;10381157;28;20683;-61
2024/03/31 20:25:10;;;;;;;5.22;3.30;;;13.80;84.70;;;;;;10387001;28;20255;-64
2024/03/31 20:30:13;;;;;;;6.70;3.45;;;13.80;84.60;;;;;;10367337;28;20304;-67
2024/03/31 20:35:15;;;;;;;7.45;3.17;;;13.70;84.90;;;;;;10352748;28;20292;-71
2024/03/31 20:40:19;;;;;;;6.72;3.70;;;13.70;84.80;;;;;;10341190;28;20282;-67
2024/03/31 20:45:22;;;;;;;8.13;4.10;;;13.70;84.30;;;;;;10374598;28;20209;-64
2024/03/31 20:50:24;;;;;;;8.50;3.40;;;13.60;85.30;;;;;;10380390;28;20285;-67
2024/03/31 20:55:28;;;;;;;6.15;3.80;;;13.60;85.30;;;;;;10301789;22;20247;-64
2024/03/31 21:00:31;;;;;;;8.45;3.88;;;13.60;84.40;;;;;;10279249;28;20266;-67
2024/03/31 21:05:34;;;;;;;6.40;3.90;;;13.50;84.40;;;;;;10277262;28;20224;-65
2024/03/31 21:10:38;;;;;;;8.15;3.85;;;13.50;85.20;;;;;;10278071;28;20258;-62
2024/03/31 21:15:41;;;;;;;6.68;3.65;;;13.50;85.40;;;;;;10282542;28;20237;-65
2024/03/31 21:20:44;;;;;;;5.70;3.25;;;13.40;85.30;;;;;;10282757;28;20581;-65
2024/03/31 21:25:55;;;;;;;7.82;2.63;;;13.40;85.90;;;;;;10279230;28;20236;-65
2024/03/31 21:31:02;;;;;;;4.35;2.10;;;13.40;84.90;;;;;;10287743;28;20229;-65
2024/03/31 21:36:05;;;;;;;4.00;2.03;;;13.50;84.40;;;;;;10280045;28;20216;-65
2024/03/31 21:41:11;;;;;;;3.15;2.20;;;13.50;84.60;;;;;;10277310;28;20221;-65
2024/03/31 21:46:15;;;;;;;2.22;1.30;;;13.50;84.40;;;;;;10278477;28;20205;-65
2024/03/31 21:51:18;;;;;;;3.85;1.35;;;13.60;84.70;;;;;;10279801;28;21673;-66
2024/03/31 21:56:22;;;;;;;3.45;1.55;;;13.60;84.00;;;;;;10277478;28;20205;-64
2024/03/31 22:01:25;;;;;;;8.15;3.25;;;13.60;84.10;;;;;;10279938;28;20782;-64
2024/03/31 22:06:27;;;;;;;3.42;1.10;;;13.70;84.30;;;;;;10279142;28;20281;-65
2024/03/31 22:11:31;;;;;;;2.63;0.95;;;13.70;84.00;;;;;;10273940;28;20315;-65
2024/03/31 22:16:34;;;;;;;1.88;0.88;;;13.70;83.30;;;;;;10272763;28;21537;-66
2024/03/31 22:21:37;;;;;;;1.80;0.90;;;13.70;83.10;;;;;;10272526;28;20240;-65
2024/03/31 22:26:41;;;;;;;3.03;1.17;;;13.70;82.90;;;;;;10274193;28;20233;-63
2024/03/31 22:31:44;;;;;;;1.40;0.82;;;13.70;82.70;;;;;;10273927;28;21487;-64
2024/03/31 22:36:47;;;;;;;1.77;0.82;;;13.70;82.80;;;;;;10275854;28;20205;-66
2024/03/31 22:41:51;;;;;;;1.33;0.68;;;13.70;83.20;;;;;;10273526;28;20241;-65
2024/03/31 22:46:53;;;;;;;1.30;0.70;;;13.60;83.00;;;;;;10272840;28;20786;-66
2024/03/31 22:51:56;;;;;;;3.22;1.10;;;13.60;83.40;;;;;;10273085;28;22110;-63
2024/03/31 22:57:00;;;;;;;2.35;0.98;;;13.50;83.70;;;;;;10269002;28;20210;-65
2024/03/31 23:02:03;;;;;;;2.90;0.70;;;13.50;83.70;;;;;;10269560;28;20290;-65
2024/03/31 23:07:05;;;;;;;1.52;0.88;;;13.40;84.90;;;;;;10269499;28;20229;-66
2024/03/31 23:12:10;;;;;;;1.90;0.70;;;13.40;84.00;;;;;;10271499;28;20232;-66
2024/03/31 23:17:17;;;;;;;2.25;0.90;;;13.40;84.00;;;;;;10270238;28;20303;-67
2024/03/31 23:22:21;;;;;;;1.33;0.90;;;13.30;83.70;;;;;;10268800;28;20319;-64
2024/03/31 23:27:25;;;;;;;1.42;1.05;;;13.30;83.70;;;;;;10269229;28;20224;-66
2024/03/31 23:32:27;;;;;;;3.50;1.63;;;13.30;83.60;;;;;;10268265;28;20237;-66
2024/03/31 23:37:30;;;;;;;6.35;2.50;;;13.40;83.70;;;;;;10267855;28;21344;-63
2024/03/31 23:42:34;;;;;;;2.65;1.40;;;13.40;83.60;;;;;;10268199;28;20232;-65
2024/03/31 23:47:36;;;;;;;1.63;1.10;;;13.40;84.10;;;;;;10267813;28;20237;-64
2024/03/31 23:52:39;;;;;;;1.80;0.80;;;13.40;84.10;;;;;;10266706;28;20817;-64
2024/03/31 23:57:43;;;;;;;2.47;1.10;;;13.30;83.80;;;;;;10269067;28;20263;-64
